Time;durP1;ratioP1;P1;durP2;ratioP2;P2;SDS_P1;SDS_P2;PMS_P1;PMS_P2;Temp;Humidity;BMP_temperature;BMP_pressure;BME280_temperature;BME280_humidity;BME280_pressure;Samples;Min_cycle;Max_cycle;Signal;HPM_P1;HPM_P2
2021/05/18 00:00:01;;;;;;;27.17;10.35;;;10.90;99.90;;;;;;5090852;28;20117;-54
2021/05/18 00:02:26;;;;;;;24.42;9.77;;;10.90;99.90;;;;;;5086527;28;20028;-57
2021/05/18 00:04:52;;;;;;;18.50;10.40;;;11.00;99.90;;;;;;5084009;28;20405;-57
2021/05/18 00:07:22;;;;;;;19.52;10.13;;;11.00;99.90;;;;;;5087556;28;20056;-54
2021/05/18 00:12:34;;;;;;;19.10;11.52;;;11.10;99.90;;;;;;5083704;28;20047;-55
2021/05/18 00:15:05;;;;;;;26.40;12.20;;;11.20;99.90;;;;;;5075107;28;20021;-54
2021/05/18 00:17:31;;;;;;;27.60;12.20;;;11.30;99.90;;;;;;5087089;28;20035;-56
2021/05/18 00:19:56;;;;;;;27.05;11.98;;;11.30;99.90;;;;;;5082545;28;20426;-57
2021/05/18 00:22:22;;;;;;;18.75;11.30;;;11.30;99.90;;;;;;5095403;22;20516;-51
2021/05/18 00:24:47;;;;;;;24.00;11.57;;;11.40;99.90;;;;;;5086840;28;20039;-51
2021/05/18 00:27:13;;;;;;;20.60;11.70;;;11.40;99.90;;;;;;5089946;28;20043;-51
2021/05/18 00:29:39;;;;;;;20.67;11.00;;;11.40;99.90;;;;;;5093300;28;20020;-51
2021/05/18 00:32:05;;;;;;;18.63;10.65;;;11.50;99.90;;;;;;5085480;28;20017;-51
2021/05/18 00:34:30;;;;;;;21.55;11.65;;;11.50;99.90;;;;;;5073237;28;20040;-52
2021/05/18 00:36:56;;;;;;;17.63;11.15;;;11.50;99.90;;;;;;5075465;28;20683;-54
2021/05/18 00:39:21;;;;;;;18.33;10.60;;;11.50;99.90;;;;;;5069615;28;20024;-52
2021/05/18 00:41:48;;;;;;;20.55;11.48;;;11.50;99.90;;;;;;5078109;28;20119;-52
2021/05/18 00:44:14;;;;;;;21.33;11.30;;;11.50;99.90;;;;;;5068118;28;20032;-53
2021/05/18 00:46:40;;;;;;;21.27;10.70;;;11.50;99.90;;;;;;5069201;28;20093;-52
2021/05/18 00:49:06;;;;;;;24.92;11.68;;;11.50;99.90;;;;;;5051828;28;20020;-53
2021/05/18 00:51:32;;;;;;;26.45;11.73;;;11.60;99.90;;;;;;5069807;28;20046;-52
2021/05/18 00:54:01;;;;;;;20.05;10.90;;;11.60;99.90;;;;;;5067940;28;20025;-51
2021/05/18 00:58:26;;;;;;;20.88;9.73;;;11.60;99.90;;;;;;5073032;28;20043;-52
2021/05/18 00:59:18;;;;;;;22.83;12.02;;;11.60;99.90;;;;;;5071175;28;20071;-55
2021/05/18 01:01:44;;;;;;;27.25;11.30;;;11.60;99.90;;;;;;5070628;28;20174;-54
2021/05/18 01:04:13;;;;;;;24.92;12.23;;;11.60;99.90;;;;;;5072208;28;20518;-53
2021/05/18 01:06:40;;;;;;;19.23;11.30;;;11.70;99.90;;;;;;5073239;28;20044;-52
2021/05/18 01:09:11;;;;;;;21.30;11.30;;;11.70;99.90;;;;;;5072325;28;20502;-52
2021/05/18 01:11:43;;;;;;;25.08;11.60;;;11.70;99.90;;;;;;5078873;28;20107;-51
2021/05/18 01:14:15;;;;;;;22.88;11.73;;;11.70;99.90;;;;;;5072170;28;20037;-56
2021/05/18 01:16:44;;;;;;;18.48;10.10;;;11.70;99.90;;;;;;5071032;28;20036;-54
2021/05/18 01:19:12;;;;;;;17.50;10.70;;;11.70;99.90;;;;;;5081802;28;20442;-53
2021/05/18 01:21:38;;;;;;;18.85;9.82;;;11.70;99.90;;;;;;5073092;28;20110;-51
2021/05/18 01:24:05;;;;;;;25.05;10.70;;;11.70;99.90;;;;;;5068346;28;20064;-52
2021/05/18 01:26:33;;;;;;;16.95;9.05;;;11.70;99.90;;;;;;5071957;28;20033;-56
2021/05/18 01:29:00;;;;;;;15.40;7.90;;;11.70;99.90;;;;;;5071973;28;20023;-53
2021/05/18 01:31:26;;;;;;;15.48;8.38;;;11.70;99.90;;;;;;5074513;28;20059;-54
2021/05/18 01:33:54;;;;;;;12.10;8.55;;;11.70;99.90;;;;;;5079691;28;20482;-52
2021/05/18 01:36:22;;;;;;;17.65;8.07;;;11.70;99.90;;;;;;5069779;28;20036;-50
2021/05/18 01:44:07;;;;;;;16.40;7.20;;;11.70;99.90;;;;;;5070158;28;20822;-53
2021/05/18 01:46:33;;;;;;;11.50;6.60;;;11.70;99.90;;;;;;5072323;28;20460;-52
2021/05/18 01:49:01;;;;;;;11.68;6.57;;;11.70;99.90;;;;;;5082250;28;20064;-50
2021/05/18 01:51:36;;;;;;;10.38;6.88;;;11.70;99.90;;;;;;5069018;28;20025;-54
2021/05/18 01:54:09;;;;;;;10.55;5.57;;;11.70;99.90;;;;;;5070904;28;20025;-55
2021/05/18 01:59:06;;;;;;;10.52;6.28;;;11.70;99.90;;;;;;5070939;28;20071;-56
2021/05/18 02:01:32;;;;;;;10.25;5.95;;;11.70;99.90;;;;;;5049692;28;20119;-53
2021/05/18 02:03:57;;;;;;;12.32;5.90;;;11.60;99.90;;;;;;5074427;28;20628;-51
2021/05/18 02:06:23;;;;;;;9.45;5.25;;;11.60;99.90;;;;;;5071173;28;20032;-53
2021/05/18 02:08:49;;;;;;;13.60;5.40;;;11.60;99.90;;;;;;5067822;28;20020;-54
2021/05/18 02:11:15;;;;;;;13.98;5.57;;;11.60;99.90;;;;;;5076493;28;20035;-54
2021/05/18 02:13:46;;;;;;;6.93;4.47;;;11.60;99.90;;;;;;5071089;28;20105;-54
2021/05/18 02:16:16;;;;;;;13.93;5.25;;;11.60;99.90;;;;;;5065074;28;20037;-54
2021/05/18 02:19:02;;;;;;;12.63;5.10;;;11.60;99.90;;;;;;5076373;28;20032;-51
2021/05/18 02:26:46;;;;;;;10.18;4.93;;;11.50;99.90;;;;;;5072216;28;20496;-52
2021/05/18 02:29:12;;;;;;;9.95;4.32;;;11.60;99.90;;;;;;5074901;28;20525;-50
2021/05/18 02:31:38;;;;;;;9.95;5.03;;;11.50;99.90;;;;;;5072590;28;20084;-52
2021/05/18 02:34:03;;;;;;;23.38;6.55;;;11.50;99.90;;;;;;5072534;28;20059;-54
2021/05/18 02:36:30;;;;;;;14.30;4.72;;;11.50;99.90;;;;;;5066997;28;20032;-50
2021/05/18 02:38:56;;;;;;;9.80;4.03;;;11.60;99.90;;;;;;5068370;28;20029;-53
2021/05/18 02:41:22;;;;;;;12.80;4.53;;;11.60;99.90;;;;;;5078871;28;20023;-55
2021/05/18 02:44:02;;;;;;;14.77;4.43;;;11.60;99.90;;;;;;5071638;28;20044;-50
2021/05/18 02:49:10;;;;;;;18.95;4.25;;;11.70;99.90;;;;;;5071888;28;20503;-50
2021/05/18 02:51:45;;;;;;;12.65;4.18;;;11.70;99.90;;;;;;5066758;28;20131;-50
2021/05/18 02:54:12;;;;;;;13.80;4.25;;;11.60;99.90;;;;;;5070182;28;20025;-57
2021/05/18 02:59:16;;;;;;;12.00;3.88;;;11.70;99.90;;;;;;5072340;28;20422;-53
2021/05/18 03:01:44;;;;;;;10.75;4.20;;;11.70;99.90;;;;;;5069820;28;20024;-55
2021/05/18 03:04:09;;;;;;;16.25;4.78;;;11.70;99.90;;;;;;5071727;28;20115;-54
2021/05/18 03:06:35;;;;;;;13.00;4.32;;;11.70;99.90;;;;;;5070818;28;20099;-50
2021/05/18 03:09:06;;;;;;;11.90;4.32;;;11.60;99.90;;;;;;5067033;28;20109;-53
2021/05/18 03:11:32;;;;;;;15.10;4.50;;;11.60;99.90;;;;;;5074629;28;20032;-53
2021/05/18 03:13:58;;;;;;;10.02;4.15;;;11.60;99.90;;;;;;5073703;28;20069;-50
2021/05/18 03:16:23;;;;;;;12.55;4.60;;;11.60;99.90;;;;;;5069826;28;20024;-51
2021/05/18 03:18:49;;;;;;;13.90;4.45;;;11.60;99.90;;;;;;5075126;28;20036;-51
2021/05/18 03:21:14;;;;;;;15.77;4.43;;;11.50;99.90;;;;;;5074118;28;20048;-55
2021/05/18 03:23:40;;;;;;;9.18;3.60;;;11.60;99.90;;;;;;5068821;28;20033;-54
2021/05/18 03:26:06;;;;;;;11.30;4.05;;;11.60;99.90;;;;;;5076582;28;20036;-55
2021/05/18 03:28:33;;;;;;;11.23;4.47;;;11.60;99.90;;;;;;5078746;28;20024;-54
2021/05/18 03:36:08;;;;;;;10.13;4.05;;;11.50;99.90;;;;;;5073464;28;20081;-54
2021/05/18 03:38:41;;;;;;;12.07;3.95;;;11.50;99.90;;;;;;5071495;28;20032;-54
2021/05/18 03:41:28;;;;;;;16.02;3.92;;;11.60;99.90;;;;;;5073089;28;20016;-55
2021/05/18 03:44:01;;;;;;;16.20;3.47;;;11.50;99.90;;;;;;5068819;28;20024;-55
2021/05/18 03:52:18;;;;;;;15.48;4.43;;;11.50;99.90;;;;;;5075372;28;20025;-52
2021/05/18 04:02:41;;;;;;;9.50;4.55;;;11.40;99.90;;;;;;5072029;28;20047;-55
2021/05/18 04:05:17;;;;;;;9.68;3.60;;;11.40;99.90;;;;;;5072927;28;20060;-52
2021/05/18 04:59:15;;;;;;;25.42;6.22;;;11.70;99.90;;;;;;5075602;28;20105;-52
2021/05/18 05:07:07;;;;;;;26.42;7.47;;;11.70;99.90;;;;;;5069490;28;20289;-54
2021/05/18 05:09:35;;;;;;;21.02;6.65;;;11.70;99.90;;;;;;5071470;28;20055;-54
2021/05/18 05:14:44;;;;;;;20.20;7.95;;;11.70;99.90;;;;;;5070935;28;20024;-53
2021/05/18 05:17:10;;;;;;;17.42;5.88;;;11.70;99.90;;;;;;5070216;28;20482;-56
2021/05/18 05:19:36;;;;;;;23.27;6.05;;;11.70;99.90;;;;;;5066803;28;20032;-56
2021/05/18 05:22:04;;;;;;;26.98;7.63;;;11.70;99.90;;;;;;5069535;28;20401;-54
2021/05/18 05:24:31;;;;;;;24.98;8.52;;;11.70;99.90;;;;;;5073627;28;20418;-52
2021/05/18 05:26:56;;;;;;;24.98;7.72;;;11.70;99.90;;;;;;5072000;28;20199;-55
2021/05/18 05:29:23;;;;;;;17.05;6.78;;;11.80;99.90;;;;;;5080106;28;20061;-52
2021/05/18 05:31:50;;;;;;;17.02;6.20;;;11.90;99.90;;;;;;5064843;28;20048;-56
2021/05/18 05:34:18;;;;;;;19.23;6.60;;;11.90;99.90;;;;;;5072372;28;20033;-56
2021/05/18 05:36:43;;;;;;;15.35;5.78;;;12.00;99.90;;;;;;5072688;28;20035;-53
2021/05/18 05:39:15;;;;;;;24.38;6.47;;;12.00;99.90;;;;;;5073261;28;20406;-52
2021/05/18 05:41:40;;;;;;;12.88;5.13;;;12.10;99.90;;;;;;5068139;28;20028;-54
2021/05/18 05:44:06;;;;;;;17.67;5.50;;;12.10;99.90;;;;;;5073788;28;20478;-55
2021/05/18 05:46:33;;;;;;;14.02;4.75;;;12.10;99.90;;;;;;5071930;28;20116;-55
2021/05/18 05:48:59;;;;;;;11.85;4.93;;;12.10;99.90;;;;;;5068767;28;20036;-56
2021/05/18 05:51:26;;;;;;;20.75;5.63;;;12.10;99.90;;;;;;5078419;28;20435;-56
2021/05/18 05:53:54;;;;;;;16.55;6.15;;;12.10;99.90;;;;;;5063401;28;20044;-55
2021/05/18 05:56:20;;;;;;;14.63;5.90;;;12.10;99.90;;;;;;5072406;28;20515;-56
2021/05/18 05:58:46;;;;;;;14.20;6.00;;;12.10;99.90;;;;;;5069398;28;20031;-52
2021/05/18 06:01:13;;;;;;;16.23;6.85;;;12.00;99.90;;;;;;5069374;28;20107;-51
2021/05/18 06:03:39;;;;;;;19.08;8.65;;;11.90;99.90;;;;;;5072772;28;20083;-53
2021/05/18 06:06:05;;;;;;;16.90;7.78;;;11.90;99.90;;;;;;5072840;28;20025;-54
2021/05/18 06:08:36;;;;;;;15.82;8.07;;;11.70;99.90;;;;;;5069437;28;20476;-57
2021/05/18 06:11:08;;;;;;;23.05;9.55;;;11.70;99.90;;;;;;5068449;28;20039;-53
2021/05/18 06:41:09;;;;;;;11.07;6.50;;;10.90;99.90;;;;;;5022475;28;20029;-58
2021/05/18 06:43:47;;;;;;;16.65;6.85;;;10.90;99.90;;;;;;5027113;28;20035;-56
2021/05/18 06:48:39;;;;;;;18.73;7.55;;;10.90;99.90;;;;;;5028550;28;20390;-61
2021/05/18 06:51:05;;;;;;;23.75;6.78;;;10.80;99.90;;;;;;5027848;28;20610;-60
2021/05/18 06:53:30;;;;;;;14.75;6.82;;;10.90;99.90;;;;;;5010561;28;20139;-58
2021/05/18 06:55:57;;;;;;;23.58;8.30;;;10.90;99.90;;;;;;5030626;28;20029;-60
2021/05/18 07:00:06;;;;;;;22.38;8.27;;;10.90;99.90;;;;;;5027470;28;20472;-59
2021/05/18 07:01:20;;;;;;;17.95;10.02;;;10.90;99.90;;;;;;5022786;28;20033;-57
2021/05/18 07:03:49;;;;;;;16.73;9.27;;;10.90;99.90;;;;;;5027609;28;20047;-60
2021/05/18 07:08:59;;;;;;;22.27;10.35;;;11.00;99.90;;;;;;5034162;28;20395;-57
2021/05/18 07:11:26;;;;;;;15.52;10.02;;;11.10;99.90;;;;;;5033333;28;20116;-57
2021/05/18 07:13:52;;;;;;;24.40;10.75;;;11.10;99.90;;;;;;5031288;28;20318;-58
2021/05/18 07:16:18;;;;;;;25.88;10.65;;;11.30;99.90;;;;;;5029824;28;20033;-58
2021/05/18 07:18:44;;;;;;;26.00;11.10;;;11.40;99.90;;;;;;5033569;28;20029;-58
2021/05/18 07:21:10;;;;;;;24.17;9.88;;;11.50;99.90;;;;;;5040674;28;20487;-58
2021/05/18 07:23:36;;;;;;;24.67;11.40;;;11.60;99.90;;;;;;5029151;28;20048;-60
2021/05/18 07:26:03;;;;;;;23.77;12.40;;;11.70;99.90;;;;;;5032265;28;20115;-62
2021/05/18 07:28:31;;;;;;;27.75;11.75;;;11.90;99.90;;;;;;5034874;28;20484;-59
2021/05/18 07:30:59;;;;;;;29.35;13.07;;;11.90;99.90;;;;;;5008735;28;20039;-59
2021/05/18 07:33:25;;;;;;;23.75;14.35;;;12.00;99.90;;;;;;5032199;28;20026;-61
2021/05/18 07:35:58;;;;;;;26.20;13.98;;;12.00;99.90;;;;;;5029086;28;20363;-61
2021/05/18 07:38:27;;;;;;;28.77;13.32;;;12.10;99.90;;;;;;5027250;28;20092;-60
2021/05/18 07:40:54;;;;;;;29.88;13.88;;;12.20;99.90;;;;;;5028458;28;20112;-61
2021/05/18 07:43:20;;;;;;;25.30;13.35;;;12.40;99.90;;;;;;5035680;28;20516;-59
2021/05/18 07:46:22;;;;;;;29.17;13.27;;;12.50;99.90;;;;;;5006197;28;20120;-58
2021/05/18 07:48:46;;;;;;;25.38;12.45;;;12.70;99.90;;;;;;5026096;28;20403;-61
2021/05/18 08:07:08;;;;;;;33.50;14.20;;;12.60;99.90;;;;;;5027317;28;20039;-62
2021/05/18 08:09:40;;;;;;;29.77;13.30;;;12.70;99.90;;;;;;5026809;28;20017;-61
2021/05/18 08:12:06;;;;;;;24.35;12.80;;;12.80;99.90;;;;;;5029879;28;20025;-61
2021/05/18 08:14:33;;;;;;;22.92;11.45;;;13.00;99.90;;;;;;5032136;28;20103;-63
2021/05/18 08:17:18;;;;;;;24.33;10.93;;;13.20;99.90;;;;;;5012981;28;20445;-62
2021/05/18 08:20:16;;;;;;;17.88;10.90;;;13.30;99.90;;;;;;5027138;28;20029;-59
2021/05/18 08:56:12;;;;;;;27.40;12.63;;;12.40;99.90;;;;;;5028331;28;20359;-58
2021/05/18 10:23:25;;;;;;;12.35;6.13;;;13.90;99.90;;;;;;4941623;28;20077;-60
2021/05/18 10:35:47;;;;;;;9.43;4.65;;;13.10;99.90;;;;;;5033181;28;20003;-60
2021/05/18 10:38:31;;;;;;;11.35;5.75;;;12.90;99.90;;;;;;5027174;28;20112;-60
2021/05/18 10:41:06;;;;;;;8.68;5.45;;;12.70;99.90;;;;;;5030029;28;20033;-59
2021/05/18 10:43:33;;;;;;;8.93;5.35;;;12.90;99.90;;;;;;5037610;28;20034;-60
2021/05/18 10:46:06;;;;;;;12.13;5.35;;;12.90;99.90;;;;;;5022232;28;20025;-60
2021/05/18 10:48:34;;;;;;;5.25;4.75;;;13.20;99.90;;;;;;5029501;28;20384;-61
2021/05/18 10:51:36;;;;;;;11.75;5.78;;;13.30;99.90;;;;;;5029055;28;20026;-61
2021/05/18 10:54:14;;;;;;;7.63;5.35;;;13.50;99.90;;;;;;5022014;28;20033;-60
2021/05/18 10:57:04;;;;;;;11.40;5.70;;;13.90;99.90;;;;;;5022067;28;20262;-59
2021/05/18 10:59:30;;;;;;;9.52;5.43;;;13.90;99.90;;;;;;5023232;28;20087;-59
2021/05/18 11:01:58;;;;;;;6.07;4.97;;;14.10;99.90;;;;;;5031259;28;20033;-60
2021/05/18 11:04:29;;;;;;;5.90;4.18;;;14.30;99.90;;;;;;5030871;28;20040;-61
2021/05/18 11:06:57;;;;;;;8.82;3.63;;;14.30;99.90;;;;;;5032130;28;20034;-58
2021/05/18 11:09:24;;;;;;;5.00;3.10;;;14.60;99.90;;;;;;5029800;28;20510;-60
2021/05/18 11:12:03;;;;;;;3.97;2.33;;;14.70;99.90;;;;;;5030074;28;20034;-61
2021/05/18 11:14:33;;;;;;;6.07;2.55;;;15.10;99.90;;;;;;5024162;28;20186;-61
2021/05/18 11:17:18;;;;;;;5.85;2.22;;;15.20;99.90;;;;;;5028356;28;20446;-60
2021/05/18 11:25:11;;;;;;;4.65;1.85;;;15.20;99.90;;;;;;5028565;28;20041;-60
2021/05/18 11:27:37;;;;;;;3.92;3.00;;;15.20;99.90;;;;;;5024061;28;20121;-59
2021/05/18 11:30:06;;;;;;;5.90;3.10;;;15.20;99.90;;;;;;5025997;28;20030;-57
2021/05/18 11:32:32;;;;;;;7.55;3.45;;;15.20;99.90;;;;;;5034077;28;20029;-60
2021/05/18 11:35:03;;;;;;;8.25;4.43;;;15.30;99.90;;;;;;5027294;28;20034;-59
2021/05/18 11:37:29;;;;;;;6.97;5.07;;;15.30;99.90;;;;;;5011944;28;20483;-59
2021/05/18 11:40:08;;;;;;;5.35;3.80;;;15.60;99.90;;;;;;5024218;28;20021;-61
2021/05/18 11:42:33;;;;;;;7.25;4.03;;;15.90;99.90;;;;;;5027855;28;20321;-61
2021/05/18 11:45:13;;;;;;;5.65;2.92;;;15.80;99.90;;;;;;5029237;28;20036;-61
2021/05/18 11:47:39;;;;;;;8.23;4.53;;;15.80;99.90;;;;;;5027131;28;20116;-60
2021/05/18 11:50:06;;;;;;;9.40;4.47;;;15.60;99.90;;;;;;5027311;28;20046;-61
2021/05/18 11:52:36;;;;;;;5.47;4.00;;;15.60;99.90;;;;;;5031317;28;20025;-58
2021/05/18 11:55:14;;;;;;;11.70;5.32;;;15.60;99.90;;;;;;5030326;28;20086;-61
2021/05/18 11:57:39;;;;;;;6.53;4.13;;;16.00;99.90;;;;;;5025126;28;20030;-61
2021/05/18 12:00:21;;;;;;;8.52;4.63;;;16.30;99.90;;;;;;5030880;28;20037;-61
2021/05/18 12:02:47;;;;;;;8.70;5.35;;;16.10;99.90;;;;;;5027329;28;20032;-61
2021/05/18 12:05:13;;;;;;;8.43;5.40;;;15.80;99.90;;;;;;5033274;28;20025;-60
2021/05/18 12:07:38;;;;;;;10.13;6.07;;;15.60;99.90;;;;;;5028858;28;20029;-58
2021/05/18 12:10:05;;;;;;;7.22;5.72;;;15.10;99.90;;;;;;5028886;28;20052;-60
2021/05/18 12:12:38;;;;;;;10.82;7.55;;;14.40;99.90;;;;;;5028033;28;20140;-61
2021/05/18 12:15:08;;;;;;;11.00;6.90;;;14.20;99.90;;;;;;5026944;28;20025;-60
2021/05/18 12:17:36;;;;;;;7.28;5.65;;;14.30;99.90;;;;;;5021095;28;20105;-60
2021/05/18 12:20:04;;;;;;;8.30;4.45;;;14.70;99.90;;;;;;5028086;28;20033;-60
2021/05/18 12:22:40;;;;;;;4.85;3.47;;;15.30;99.90;;;;;;5046544;22;20294;-55
2021/05/18 12:25:06;;;;;;;7.50;4.63;;;15.90;99.90;;;;;;5027687;28;20500;-55
2021/05/18 12:27:42;;;;;;;10.93;6.55;;;16.10;99.90;;;;;;5034800;28;20048;-56
2021/05/18 12:30:08;;;;;;;7.65;5.65;;;16.40;99.90;;;;;;5029472;28;20112;-55
2021/05/18 12:32:36;;;;;;;12.02;6.40;;;16.50;99.90;;;;;;5029111;28;20103;-55
2021/05/18 12:35:04;;;;;;;10.63;6.78;;;16.60;99.90;;;;;;5026737;28;20408;-53
2021/05/18 12:37:35;;;;;;;9.73;7.15;;;17.00;99.90;;;;;;5024165;28;20025;-55
2021/05/18 12:40:05;;;;;;;11.90;6.75;;;17.30;99.90;;;;;;5032459;28;20036;-57
2021/05/18 12:42:30;;;;;;;11.68;6.78;;;17.60;99.90;;;;;;5024490;28;20067;-54
2021/05/18 12:45:02;;;;;;;12.93;7.10;;;17.90;99.90;;;;;;5026058;28;20134;-57
2021/05/18 12:47:37;;;;;;;9.90;5.95;;;17.70;99.90;;;;;;5030120;28;20056;-55
2021/05/18 12:50:12;;;;;;;11.43;6.70;;;18.00;99.90;;;;;;5025351;28;20109;-56
2021/05/18 12:52:41;;;;;;;8.65;5.65;;;17.90;99.90;;;;;;5038235;28;20022;-56
2021/05/18 12:55:17;;;;;;;7.65;5.45;;;18.10;99.90;;;;;;5029042;28;20014;-55
2021/05/18 12:57:55;;;;;;;11.82;6.97;;;18.00;99.90;;;;;;5034066;28;20033;-53
2021/05/18 13:00:36;;;;;;;12.02;7.38;;;17.90;99.90;;;;;;5038949;28;20025;-53
2021/05/18 13:03:14;;;;;;;13.52;7.05;;;18.00;99.90;;;;;;5030935;28;20034;-55
2021/05/18 13:05:52;;;;;;;7.68;6.47;;;18.40;99.90;;;;;;5030652;28;20040;-56
2021/05/18 13:08:23;;;;;;;7.30;5.43;;;18.40;99.90;;;;;;5028919;28;20125;-54
2021/05/18 13:11:05;;;;;;;7.65;4.82;;;18.30;99.90;;;;;;5046704;28;20029;-55
2021/05/18 13:13:39;;;;;;;6.60;4.25;;;18.40;99.90;;;;;;5007431;28;20021;-53
2021/05/18 13:16:07;;;;;;;;;;;18.30;99.90;;;;;;5016862;28;20039;-54
2021/05/18 13:18:33;;;;;;;10.15;4.30;;;18.30;99.90;;;;;;5028884;28;20401;-54
2021/05/18 13:21:00;;;;;;;7.88;4.03;;;17.80;99.90;;;;;;5032124;28;20037;-52
2021/05/18 13:23:34;;;;;;;9.48;5.32;;;17.60;99.90;;;;;;5032236;28;20051;-56
2021/05/18 13:28:44;;;;;;;9.63;4.75;;;18.40;99.90;;;;;;5029293;28;20119;-53
2021/05/18 13:31:09;;;;;;;8.05;3.47;;;18.30;99.90;;;;;;5027563;28;20495;-55
2021/05/18 13:33:35;;;;;;;8.20;4.30;;;18.60;99.90;;;;;;5030460;28;20434;-56
2021/05/18 13:36:01;;;;;;;6.90;3.85;;;17.80;99.90;;;;;;5033284;28;20021;-56
2021/05/18 13:38:27;;;;;;;8.07;4.50;;;17.30;99.90;;;;;;5037351;28;20029;-56
2021/05/18 13:40:52;;;;;;;6.25;4.63;;;17.00;99.90;;;;;;5029177;28;20483;-55
2021/05/18 13:43:19;;;;;;;6.32;4.75;;;16.80;99.90;;;;;;5030891;28;20044;-53
2021/05/18 13:45:44;;;;;;;7.38;5.15;;;16.40;99.90;;;;;;5033507;28;20033;-54
2021/05/18 13:48:10;;;;;;;7.00;5.60;;;16.40;99.90;;;;;;5032224;28;20026;-54
2021/05/18 13:50:36;;;;;;;5.15;3.92;;;16.70;99.90;;;;;;5031534;28;20026;-55
2021/05/18 13:53:02;;;;;;;6.90;4.10;;;17.10;99.90;;;;;;5032964;28;20057;-52
2021/05/18 13:55:28;;;;;;;5.35;3.78;;;16.90;99.90;;;;;;5030216;28;20029;-53
2021/05/18 13:57:53;;;;;;;4.35;3.95;;;17.10;99.90;;;;;;5033792;28;20056;-56
2021/05/18 14:00:21;;;;;;;6.20;3.85;;;17.40;99.90;;;;;;5028803;28;20479;-56
2021/05/18 14:02:48;;;;;;;6.30;4.40;;;17.70;99.90;;;;;;5029722;28;20079;-56
2021/05/18 14:05:19;;;;;;;6.65;4.97;;;17.70;99.90;;;;;;5030669;28;20032;-56
2021/05/18 14:08:37;;;;;;;6.80;5.82;;;18.00;99.90;;;;;;5030913;28;20040;-54
2021/05/18 14:11:13;;;;;;;7.20;4.45;;;18.00;99.90;;;;;;5030842;28;20067;-56
2021/05/18 14:13:41;;;;;;;10.32;5.95;;;18.10;99.90;;;;;;5029717;28;20053;-55
2021/05/18 14:16:09;;;;;;;6.93;4.97;;;18.10;99.90;;;;;;5028807;28;20026;-56
2021/05/18 14:18:35;;;;;;;7.20;5.50;;;18.10;99.90;;;;;;5030535;28;20022;-54
2021/05/18 14:21:02;;;;;;;6.97;4.97;;;18.10;99.90;;;;;;5028149;28;20072;-55
2021/05/18 14:23:36;;;;;;;10.38;6.07;;;17.90;99.90;;;;;;5029766;28;20038;-53
2021/05/18 14:26:02;;;;;;;9.02;5.32;;;17.50;99.90;;;;;;5031220;28;20396;-56
2021/05/18 14:28:27;;;;;;;10.18;5.93;;;17.30;99.90;;;;;;5033787;28;20037;-55
2021/05/18 14:30:53;;;;;;;8.73;6.28;;;16.80;99.90;;;;;;5031968;28;20028;-56
2021/05/18 14:33:18;;;;;;;8.57;5.78;;;16.60;99.90;;;;;;5032119;28;20131;-57
2021/05/18 14:35:45;;;;;;;8.10;4.32;;;16.60;99.90;;;;;;5031771;28;20438;-54
2021/05/18 14:38:28;;;;;;;4.63;3.83;;;16.50;99.90;;;;;;5031734;28;20032;-56
2021/05/18 14:45:46;;;;;;;5.90;3.45;;;16.20;99.90;;;;;;5031513;28;20120;-56
2021/05/18 14:53:39;;;;;;;6.15;3.25;;;16.10;99.90;;;;;;5034965;28;20035;-54
2021/05/18 14:56:25;;;;;;;4.72;4.15;;;15.30;99.90;;;;;;5031865;28;20021;-54
2021/05/18 14:58:50;;;;;;;7.43;4.30;;;15.20;99.90;;;;;;5029246;28;20078;-53
2021/05/18 15:01:16;;;;;;;8.40;5.47;;;14.90;99.90;;;;;;5030910;28;20026;-54
2021/05/18 15:03:41;;;;;;;10.02;6.43;;;14.60;99.90;;;;;;5032792;28;20029;-57
2021/05/18 15:06:07;;;;;;;15.27;7.63;;;14.30;99.90;;;;;;5030458;28;20021;-56
2021/05/18 15:08:32;;;;;;;9.13;5.60;;;13.70;99.90;;;;;;5029670;28;20041;-53
2021/05/18 15:11:02;;;;;;;8.95;5.95;;;13.40;99.90;;;;;;5028477;28;20057;-52
2021/05/18 15:13:28;;;;;;;11.90;7.00;;;13.30;99.90;;;;;;5024382;28;20030;-51
2021/05/18 15:15:54;;;;;;;10.75;8.38;;;13.10;99.90;;;;;;5033779;28;20468;-52
2021/05/18 15:18:19;;;;;;;15.05;8.95;;;13.10;99.90;;;;;;5033981;28;20045;-50
2021/05/18 15:20:45;;;;;;;14.85;11.43;;;12.90;99.90;;;;;;5033036;28;20033;-54
2021/05/18 15:23:10;;;;;;;20.52;10.82;;;12.90;99.90;;;;;;5030457;28;20443;-52
2021/05/18 15:25:36;;;;;;;17.10;10.90;;;12.60;99.90;;;;;;5030328;28;20501;-52
2021/05/18 15:28:02;;;;;;;15.88;9.98;;;12.50;99.90;;;;;;5030597;28;20076;-55
2021/05/18 15:30:28;;;;;;;17.77;12.27;;;12.30;99.90;;;;;;5030931;28;20124;-57
2021/05/18 15:32:53;;;;;;;18.42;13.80;;;12.20;99.90;;;;;;5031155;28;20092;-52
2021/05/18 15:35:19;;;;;;;24.00;13.90;;;12.10;99.90;;;;;;5032528;28;20029;-52
2021/05/18 15:37:44;;;;;;;19.10;13.57;;;12.10;99.90;;;;;;5037310;28;20029;-52
2021/05/18 15:40:12;;;;;;;20.65;14.82;;;12.10;99.90;;;;;;5029754;28;20021;-55
2021/05/18 15:42:38;;;;;;;28.23;15.68;;;12.10;99.90;;;;;;5017777;28;20039;-53
2021/05/18 15:45:05;;;;;;;25.73;16.88;;;12.10;99.90;;;;;;5030697;28;20035;-52
2021/05/18 15:47:32;;;;;;;23.38;16.58;;;12.10;99.90;;;;;;5036167;28;20472;-52
2021/05/18 15:49:58;;;;;;;23.08;16.73;;;12.10;99.90;;;;;;5029349;28;20075;-53
2021/05/18 15:52:24;;;;;;;29.38;18.35;;;12.10;99.90;;;;;;5031916;28;20014;-54
2021/05/18 15:54:50;;;;;;;24.08;16.27;;;12.10;99.90;;;;;;5014223;28;20041;-53
2021/05/18 15:57:16;;;;;;;20.95;15.00;;;12.10;99.90;;;;;;5019233;28;20072;-53
2021/05/18 15:59:44;;;;;;;20.63;14.88;;;12.10;99.90;;;;;;5026157;28;20452;-51
2021/05/18 16:02:09;;;;;;;25.65;16.80;;;12.10;99.90;;;;;;5031368;28;20046;-54
2021/05/18 16:04:35;;;;;;;23.85;15.77;;;12.20;99.90;;;;;;5026594;28;20255;-54
2021/05/18 16:07:10;;;;;;;18.98;12.75;;;12.30;99.90;;;;;;5035401;28;20032;-53
2021/05/18 16:09:35;;;;;;;21.15;13.57;;;12.50;99.90;;;;;;5032065;28;20160;-51
2021/05/18 16:12:01;;;;;;;22.63;12.55;;;12.90;99.90;;;;;;5034030;28;20501;-51
2021/05/18 16:14:26;;;;;;;23.35;16.27;;;13.10;99.90;;;;;;5029561;28;20041;-52
2021/05/18 16:16:52;;;;;;;23.95;14.88;;;13.30;99.90;;;;;;5027490;28;20026;-54
2021/05/18 16:19:18;;;;;;;24.30;14.00;;;13.40;99.90;;;;;;5028726;28;20033;-53
2021/05/18 16:21:43;;;;;;;18.50;15.20;;;13.40;99.90;;;;;;5032689;28;20407;-52
2021/05/18 16:24:09;;;;;;;25.92;16.70;;;13.40;99.90;;;;;;5031049;28;20487;-52
2021/05/18 16:26:35;;;;;;;29.38;15.75;;;13.50;99.90;;;;;;5027847;28;20037;-52
2021/05/18 16:29:02;;;;;;;19.25;14.82;;;13.50;99.90;;;;;;5026685;28;20372;-51
2021/05/18 16:31:28;;;;;;;17.83;11.90;;;13.40;99.90;;;;;;5029006;28;20033;-52
2021/05/18 16:33:55;;;;;;;17.13;10.63;;;13.40;99.90;;;;;;5026647;28;20026;-51
2021/05/18 16:36:21;;;;;;;17.48;13.05;;;13.40;99.90;;;;;;5028798;28;20277;-50
2021/05/18 16:38:47;;;;;;;19.67;12.70;;;13.30;99.90;;;;;;5030187;28;20025;-52
2021/05/18 16:41:13;;;;;;;24.05;16.45;;;13.10;99.90;;;;;;5026262;28;20038;-52
2021/05/18 16:43:40;;;;;;;22.85;14.95;;;13.00;99.90;;;;;;5029659;28;20503;-55
2021/05/18 16:46:07;;;;;;;24.20;16.55;;;13.00;99.90;;;;;;5029674;28;20043;-54
2021/05/18 16:48:33;;;;;;;25.05;16.98;;;13.50;99.90;;;;;;5009661;28;20034;-52
2021/05/18 16:51:02;;;;;;;18.65;13.15;;;13.70;99.90;;;;;;5028786;28;20484;-53
2021/05/18 16:53:29;;;;;;;16.75;10.90;;;13.80;99.90;;;;;;5030734;28;20495;-53
2021/05/18 16:55:55;;;;;;;17.73;11.65;;;13.80;99.90;;;;;;5033453;28;20029;-54
2021/05/18 16:58:20;;;;;;;20.17;12.68;;;13.80;99.90;;;;;;5028862;28;20022;-52
2021/05/18 17:00:47;;;;;;;20.05;14.35;;;13.80;99.90;;;;;;5029708;28;20437;-53
2021/05/18 17:03:13;;;;;;;24.95;15.63;;;13.70;99.90;;;;;;5029033;28;20034;-53
2021/05/18 17:05:39;;;;;;;22.30;14.10;;;13.80;99.90;;;;;;5028136;28;20033;-54
2021/05/18 17:08:06;;;;;;;28.65;17.15;;;13.80;99.90;;;;;;5024106;28;20405;-52
2021/05/18 17:10:33;;;;;;;21.40;15.88;;;13.90;99.90;;;;;;5031714;28;20026;-52
2021/05/18 17:13:00;;;;;;;19.80;12.68;;;13.80;99.90;;;;;;5033092;28;20390;-55
2021/05/18 17:15:27;;;;;;;17.35;12.38;;;13.60;99.90;;;;;;5030302;28;20542;-53
2021/05/18 17:17:53;;;;;;;18.85;12.07;;;13.50;99.90;;;;;;5027335;28;20101;-54
2021/05/18 17:20:20;;;;;;;24.63;13.48;;;13.50;99.90;;;;;;5025910;28;20087;-52
2021/05/18 17:22:46;;;;;;;17.83;12.23;;;13.50;99.90;;;;;;5028471;28;20095;-54
2021/05/18 17:25:13;;;;;;;17.70;12.45;;;13.50;99.90;;;;;;5034292;28;20381;-52
2021/05/18 17:27:39;;;;;;;20.13;13.32;;;13.60;99.90;;;;;;5032306;28;20025;-52
2021/05/18 17:30:16;;;;;;;17.20;12.52;;;13.50;99.90;;;;;;5029410;28;20468;-53
2021/05/18 17:32:42;;;;;;;19.05;13.82;;;13.40;99.90;;;;;;5029092;28;20116;-51
2021/05/18 17:35:09;;;;;;;22.92;14.02;;;13.20;99.90;;;;;;5034563;28;20446;-53
2021/05/18 17:37:35;;;;;;;18.77;13.90;;;13.00;99.90;;;;;;5030731;28;20045;-51